Time;durP1;ratioP1;P1;durP2;ratioP2;P2;SDS_P1;SDS_P2;PMS_P1;PMS_P2;Temp;Humidity;BMP_temperature;BMP_pressure;BME280_temperature;BME280_humidity;BME280_pressure;Samples;Min_cycle;Max_cycle;Signal;HPM_P1;HPM_P2
2023/01/29 00:01:58;;;;;;;12.40;4.68;;;;;;;-2.50;88.88;103003.88;4981512;28;20029;-83
2023/01/29 00:04:23;;;;;;;13.40;4.70;;;;;;;-2.51;89.03;103005.50;4992953;28;20038;-82
2023/01/29 00:06:49;;;;;;;14.30;5.53;;;;;;;-2.49;89.04;103000.56;4981582;28;20057;-83
2023/01/29 00:09:14;;;;;;;12.20;4.65;;;;;;;-2.47;88.83;102993.03;4974350;28;20062;-83
2023/01/29 00:11:39;;;;;;;12.10;4.32;;;;;;;-2.44;89.13;102989.06;4973783;28;20046;-83
2023/01/29 00:14:05;;;;;;;15.57;5.72;;;;;;;-2.45;90.48;102986.41;4972385;28;20031;-83
2023/01/29 00:16:31;;;;;;;15.50;5.65;;;;;;;-2.46;90.63;102980.41;4973834;28;20023;-83
2023/01/29 00:18:56;;;;;;;16.10;6.07;;;;;;;-2.44;89.52;102985.63;4990127;28;20053;-83
2023/01/29 00:21:22;;;;;;;15.95;6.10;;;;;;;-2.42;89.51;102982.41;4991822;28;20037;-83
2023/01/29 00:23:48;;;;;;;15.50;5.60;;;;;;;-2.39;89.61;102982.66;4993051;28;20544;-83
2023/01/29 00:26:14;;;;;;;14.53;5.53;;;;;;;-2.38;89.48;102964.09;4993202;28;20365;-82
2023/01/29 00:28:42;;;;;;;15.23;5.50;;;;;;;-2.35;89.33;102966.81;4992868;28;20289;-83
2023/01/29 00:31:25;;;;;;;14.75;5.45;;;;;;;-2.31;89.43;102964.50;4993903;28;20029;-83
2023/01/29 00:33:51;;;;;;;14.05;5.30;;;;;;;-2.30;89.45;102967.16;4992858;28;20072;-84
2023/01/29 00:36:18;;;;;;;14.32;5.22;;;;;;;-2.25;89.28;102963.28;4992767;28;20457;-83
2023/01/29 00:38:53;;;;;;;14.60;5.38;;;;;;;-2.22;89.29;102966.06;4993732;28;20403;-84
2023/01/29 00:45:05;;;;;;;13.63;5.25;;;;;;;-2.20;89.31;102958.53;4993322;28;20068;-83
2023/01/29 00:47:00;;;;;;;12.93;4.80;;;;;;;-2.18;89.48;102956.97;4975426;28;20033;-83
2023/01/29 00:49:25;;;;;;;11.45;4.47;;;;;;;-2.15;89.17;102956.31;4991804;28;20031;-83
2023/01/29 00:54:35;;;;;;;16.63;6.15;;;;;;;-2.13;89.29;102942.03;4993297;28;20045;-83
2023/01/29 00:57:01;;;;;;;16.13;5.88;;;;;;;-2.14;89.13;102931.00;4997009;28;20376;-83
2023/01/29 00:59:27;;;;;;;14.70;5.55;;;;;;;-2.13;89.07;102934.41;4997260;28;20072;-83
2023/01/29 01:04:36;;;;;;;15.25;5.60;;;;;;;-2.12;89.12;102924.31;4997255;28;20096;-83
2023/01/29 01:07:01;;;;;;;16.25;6.25;;;;;;;-2.10;88.86;102922.78;4997032;28;20027;-84
2023/01/29 01:12:10;;;;;;;17.23;6.32;;;;;;;-2.13;88.97;102929.31;4997367;28;20081;-83
2023/01/29 01:14:36;;;;;;;16.85;5.80;;;;;;;-2.13;88.84;102934.41;4997036;28;20030;-83
2023/01/29 01:17:16;;;;;;;16.08;5.78;;;;;;;-2.14;89.25;102937.72;4995687;28;20057;-83
2023/01/29 01:19:52;;;;;;;16.25;6.15;;;;;;;-2.18;88.93;102932.41;4996827;28;20100;-83
2023/01/29 01:22:30;;;;;;;16.30;5.60;;;;;;;-2.22;88.85;102932.09;4997138;28;20022;-83
2023/01/29 01:25:11;;;;;;;15.23;5.75;;;;;;;-2.25;88.98;102925.13;4996117;28;20034;-83
2023/01/29 01:27:52;;;;;;;13.60;5.40;;;;;;;-2.26;89.06;102928.44;4996436;28;20027;-83
2023/01/29 01:30:32;;;;;;;14.23;5.43;;;;;;;-2.29;88.92;102927.34;5011577;28;20030;-83
2023/01/29 01:33:16;;;;;;;13.82;4.70;;;;;;;-2.33;89.23;102938.97;5016078;28;20030;-83
2023/01/29 01:35:50;;;;;;;11.73;4.55;;;;;;;-2.35;89.32;102940.53;4998435;28;20041;-83
2023/01/29 01:38:21;;;;;;;11.27;4.50;;;;;;;-2.36;89.43;102942.16;4995937;28;20030;-83
2023/01/29 01:40:52;;;;;;;13.18;4.75;;;;;;;-2.37;88.97;102939.53;4996572;28;20340;-82
2023/01/29 01:43:27;;;;;;;14.05;5.13;;;;;;;-2.37;89.47;102942.06;4996864;28;20385;-83
2023/01/29 01:46:08;;;;;;;16.75;5.80;;;;;;;-2.36;89.06;102931.97;4995062;28;20034;-83
2023/01/29 01:48:48;;;;;;;15.82;5.82;;;;;;;-2.33;89.47;102936.44;4996597;28;20046;-83
2023/01/29 01:51:29;;;;;;;14.30;5.10;;;;;;;-2.34;89.49;102927.91;4995761;28;20057;-83
2023/01/29 01:54:29;;;;;;;13.77;5.05;;;;;;;-2.33;89.33;102931.34;4995759;28;20033;-83
2023/01/29 01:57:08;;;;;;;14.75;5.40;;;;;;;-2.33;89.48;102936.44;4948673;28;20039;-83
2023/01/29 01:59:36;;;;;;;14.40;5.03;;;;;;;-2.32;89.61;102940.75;5003806;28;20167;-83
2023/01/29 02:10:17;;;;;;;15.20;5.40;;;;;;;-2.30;89.84;102945.94;5015936;28;20402;-83
2023/01/29 02:12:44;;;;;;;13.65;5.25;;;;;;;-2.31;89.49;102942.53;5014892;28;20025;-83
2023/01/29 02:15:09;;;;;;;;;;;;;;;-2.32;90.23;102950.91;5015884;28;20084;-84
2023/01/29 02:17:35;;;;;;;15.50;5.70;;;;;;;-2.34;89.37;102942.28;5008615;28;19918;-83
2023/01/29 02:20:23;;;;;;;16.05;5.88;;;;;;;-2.31;89.94;102950.16;4995372;28;20026;-84
2023/01/29 02:22:54;;;;;;;14.60;5.28;;;;;;;-2.30;90.25;102953.56;4995658;28;20088;-83
2023/01/29 02:25:58;;;;;;;14.77;5.25;;;;;;;-2.28;89.50;102949.47;4995871;28;20443;-83
2023/01/29 02:28:29;;;;;;;16.75;6.05;;;;;;;-2.24;89.80;102953.97;4995510;28;20431;-83
2023/01/29 02:31:30;;;;;;;16.92;6.15;;;;;;;-2.22;89.83;102953.34;4977141;28;20061;-83
2023/01/29 02:38:00;;;;;;;15.30;5.30;;;;;;;-2.20;89.73;102956.88;4969311;28;20411;-83
2023/01/29 02:40:32;;;;;;;17.65;6.20;;;;;;;-2.17;90.10;102948.56;4975401;28;20388;-84
2023/01/29 02:43:29;;;;;;;16.55;5.70;;;;;;;-2.15;89.68;102949.56;4976257;28;20425;-83
2023/01/29 02:46:24;;;;;;;16.55;5.55;;;;;;;-2.12;90.13;102946.34;4975895;28;20039;-83
2023/01/29 02:49:41;;;;;;;16.88;6.13;;;;;;;-2.10;89.95;102950.78;4974792;28;20146;-84
2023/01/29 02:52:12;;;;;;;15.20;5.68;;;;;;;-2.08;90.02;102948.31;4897305;29;20029;-84
2023/01/29 02:54:50;;;;;;;14.35;5.20;;;;;;;-2.08;90.35;102949.22;4896783;29;20192;-83
2023/01/29 02:57:23;;;;;;;16.20;5.90;;;;;;;-2.05;89.94;102943.47;4945438;28;20105;-84
2023/01/29 03:00:01;;;;;;;16.42;6.00;;;;;;;-2.04;89.87;102935.94;4987031;28;20030;-83
2023/01/29 03:02:53;;;;;;;16.65;5.93;;;;;;;-1.99;89.78;102940.47;4994917;28;20387;-85
2023/01/29 03:05:29;;;;;;;16.77;6.30;;;;;;;-1.96;89.99;102943.22;5008741;28;20038;-83
2023/01/29 03:08:00;;;;;;;17.15;5.90;;;;;;;-1.95;90.20;102943.31;4975865;28;20054;-84
2023/01/29 03:10:49;;;;;;;16.67;6.10;;;;;;;-1.93;90.45;102938.38;4975118;28;20101;-84
2023/01/29 03:13:31;;;;;;;15.25;5.35;;;;;;;-1.90;90.04;102944.53;4975586;28;20034;-84
2023/01/29 03:16:03;;;;;;;13.95;4.85;;;;;;;-1.89;90.20;102936.13;4974465;28;20023;-83
2023/01/29 03:18:40;;;;;;;14.90;5.40;;;;;;;-1.86;90.46;102940.53;4988880;28;20046;-84
2023/01/29 03:32:20;;;;;;;16.40;6.53;;;;;;;-1.78;90.57;102936.00;5014248;28;20099;-84
2023/01/29 03:34:52;;;;;;;16.75;6.18;;;;;;;-1.77;90.50;102928.44;5014044;28;20391;-84
2023/01/29 03:37:26;;;;;;;18.52;6.82;;;;;;;-1.75;90.03;102933.66;5013311;28;20021;-84
2023/01/29 03:39:51;;;;;;;17.98;6.60;;;;;;;-1.74;90.23;102930.31;5013805;28;20038;-84
2023/01/29 03:42:37;;;;;;;18.30;7.18;;;;;;;-1.71;90.40;102931.44;5013923;28;20020;-85
2023/01/29 03:45:26;;;;;;;20.45;7.93;;;;;;;-1.71;91.71;102933.09;5013335;28;20033;-84
2023/01/29 03:47:57;;;;;;;21.17;8.38;;;;;;;-1.73;91.27;102927.91;5002840;28;20033;-85
2023/01/29 03:50:33;;;;;;;18.67;7.22;;;;;;;-1.72;90.55;102926.22;5013387;28;20041;-84
2023/01/29 03:53:33;;;;;;;18.00;7.30;;;;;;;-1.70;90.57;102914.47;5013589;28;20036;-85
2023/01/29 03:56:07;;;;;;;17.45;6.60;;;;;;;-1.67;90.72;102911.25;4994107;28;20117;-85
2023/01/29 03:58:42;;;;;;;18.23;7.13;;;;;;;-1.65;90.61;102909.69;4992995;28;20069;-84
2023/01/29 04:01:11;;;;;;;17.75;6.38;;;;;;;-1.62;90.93;102912.47;5013446;28;20049;-85
2023/01/29 04:03:40;;;;;;;16.70;6.13;;;;;;;-1.60;90.62;102916.88;5013326;28;20021;-85
2023/01/29 04:06:17;;;;;;;17.70;7.00;;;;;;;-1.58;90.75;102906.81;5012850;28;20026;-85
2023/01/29 04:08:51;;;;;;;15.93;6.47;;;;;;;-1.57;90.39;102899.25;5013771;28;20022;-85
2023/01/29 04:11:19;;;;;;;18.40;7.03;;;;;;;-1.54;90.37;102896.03;5013655;28;20034;-85
2023/01/29 04:13:45;;;;;;;18.98;7.70;;;;;;;-1.52;90.30;102901.25;5012996;28;20095;-85
2023/01/29 04:16:19;;;;;;;19.65;7.72;;;;;;;-1.50;90.21;102892.94;5013220;28;20021;-85
2023/01/29 04:18:47;;;;;;;19.48;7.43;;;;;;;-1.49;90.76;102897.25;4996659;28;20391;-85
2023/01/29 04:21:14;;;;;;;18.30;7.10;;;;;;;-1.46;90.57;102894.88;4993566;28;20023;-85
2023/01/29 04:23:39;;;;;;;;;;;;;;;-1.44;90.86;102882.28;4994374;28;20076;-85
2023/01/29 04:26:20;;;;;;;19.27;7.27;;;;;;;-1.43;90.53;102889.13;4992946;28;20008;-86
2023/01/29 04:29:04;;;;;;;18.65;7.43;;;;;;;-1.43;90.53;102892.53;4991016;28;20027;-85
2023/01/29 04:32:05;;;;;;;18.58;7.38;;;;;;;-1.42;91.18;102898.53;4993710;28;20068;-85
2023/01/29 04:35:26;;;;;;;16.70;6.53;;;;;;;-1.40;91.16;102899.50;4978833;28;20038;-86
2023/01/29 04:38:07;;;;;;;17.52;6.32;;;;;;;-1.38;91.45;102889.44;4914577;29;20537;-85
2023/01/29 04:40:54;;;;;;;18.02;6.68;;;;;;;-1.37;91.26;102888.66;4914381;29;20020;-85
2023/01/29 04:43:34;;;;;;;18.77;7.15;;;;;;;-1.38;91.47;102871.59;4980423;28;20407;-85
2023/01/29 04:46:31;;;;;;;17.83;6.60;;;;;;;-1.36;91.80;102865.81;4993556;28;20025;-85
2023/01/29 04:49:15;;;;;;;18.35;7.10;;;;;;;-1.35;91.18;102862.50;4976139;28;20038;-86
2023/01/29 04:52:06;;;;;;;19.92;7.95;;;;;;;-1.31;90.54;102861.94;4993481;28;20041;-86
2023/01/29 04:55:13;;;;;;;20.90;9.00;;;;;;;-1.27;90.33;102850.28;4992598;28;20041;-86
2023/01/29 04:58:05;;;;;;;23.15;10.00;;;;;;;-1.26;91.55;102844.41;4993039;28;20476;-86
2023/01/29 05:00:37;;;;;;;23.80;10.43;;;;;;;-1.22;90.54;102835.28;4992163;28;20034;-85
2023/01/29 05:03:04;;;;;;;22.58;9.88;;;;;;;-1.22;90.71;102838.69;4992368;28;20395;-86
2023/01/29 05:05:29;;;;;;;22.92;9.93;;;;;;;-1.21;91.09;102837.91;4993523;28;20030;-86
2023/01/29 05:07:56;;;;;;;22.17;9.75;;;;;;;-1.20;90.78;102833.72;4991377;28;20034;-85
2023/01/29 05:10:23;;;;;;;21.77;9.63;;;;;;;-1.19;91.72;102831.25;4993134;28;20475;-86
2023/01/29 05:12:57;;;;;;;22.13;9.02;;;;;;;-1.17;91.23;102842.44;4993261;28;20045;-86
2023/01/29 05:15:28;;;;;;;21.63;8.93;;;;;;;-1.15;91.03;102839.97;4992753;28;20106;-85
2023/01/29 05:18:00;;;;;;;20.63;8.73;;;;;;;-1.15;91.34;102833.25;4992905;28;20047;-85
2023/01/29 05:20:26;;;;;;;19.90;8.40;;;;;;;-1.13;91.50;102834.22;4993296;28;20101;-86
2023/01/29 05:22:51;;;;;;;20.95;8.65;;;;;;;-1.09;90.89;102836.16;4992487;28;20109;-86
2023/01/29 05:25:26;;;;;;;20.65;8.43;;;;;;;-1.08;91.03;102829.44;4993211;28;20022;-86
2023/01/29 05:28:05;;;;;;;22.90;9.50;;;;;;;-1.05;90.58;102821.94;4993048;28;20506;-86
2023/01/29 05:30:33;;;;;;;23.35;10.13;;;;;;;-1.04;91.02;102827.94;4992541;28;20475;-85
2023/01/29 05:32:58;;;;;;;22.77;10.30;;;;;;;-1.04;92.10;102818.63;4992800;28;20026;-85
2023/01/29 05:35:24;;;;;;;23.10;10.07;;;;;;;-1.03;91.63;102811.88;4992773;28;20368;-85
2023/01/29 05:37:50;;;;;;;22.90;9.68;;;;;;;-1.03;91.29;102815.28;4992082;28;20027;-85
2023/01/29 05:40:15;;;;;;;19.63;8.30;;;;;;;-1.00;91.21;102812.06;4994617;28;20035;-86
2023/01/29 05:42:41;;;;;;;23.10;9.73;;;;;;;-0.97;91.06;102825.00;4996838;28;20271;-86
2023/01/29 05:45:07;;;;;;;22.92;10.25;;;;;;;-0.94;90.76;102817.56;4995610;28;20029;-86
2023/01/29 05:47:32;;;;;;;22.97;10.13;;;;;;;-0.94;91.13;102818.44;4996040;28;20068;-85
2023/01/29 05:49:57;;;;;;;21.95;9.40;;;;;;;-0.93;91.25;102825.28;4995547;28;20121;-85
2023/01/29 05:52:23;;;;;;;22.27;9.95;;;;;;;-0.90;90.77;102824.59;4997012;28;20054;-86
2023/01/29 05:54:48;;;;;;;24.58;11.60;;;;;;;-0.85;90.61;102827.47;4996245;28;20030;-85
2023/01/29 05:57:13;;;;;;;23.38;10.85;;;;;;;-0.87;91.23;102835.00;4995760;28;20041;-85
2023/01/29 05:59:39;;;;;;;23.00;9.82;;;;;;;-0.86;91.18;102831.66;4996199;28;20037;-86
2023/01/29 06:02:04;;;;;;;24.67;11.30;;;;;;;-0.86;91.76;102831.66;4996282;28;20031;-86
2023/01/29 06:04:29;;;;;;;22.88;9.80;;;;;;;-0.86;91.47;102833.34;4995349;28;20361;-85
2023/01/29 06:06:54;;;;;;;22.08;10.13;;;;;;;-0.85;92.04;102838.53;4996342;28;20048;-86
2023/01/29 06:09:20;;;;;;;21.77;9.25;;;;;;;-0.85;91.89;102837.66;4995924;28;20026;-86
2023/01/29 06:11:45;;;;;;;20.02;8.57;;;;;;;-0.83;91.79;102841.16;4995516;28;20025;-86
2023/01/29 06:14:11;;;;;;;20.85;9.00;;;;;;;-0.83;92.10;102842.06;4996311;28;20040;-87
2023/01/29 06:16:36;;;;;;;21.33;9.82;;;;;;;-0.81;91.55;102843.06;4996012;28;20134;-86
2023/01/29 06:19:01;;;;;;;21.02;9.30;;;;;;;-0.81;91.33;102852.34;4995186;28;20054;-86
2023/01/29 06:21:26;;;;;;;24.33;10.60;;;;;;;-0.79;91.30;102859.31;4996104;28;20043;-86
2023/01/29 06:24:13;;;;;;;21.65;9.27;;;;;;;-0.79;91.83;102851.66;4995864;28;20033;-86
2023/01/29 06:26:38;;;;;;;21.63;9.43;;;;;;;-0.73;91.32;102865.59;4995341;28;20026;-86
2023/01/29 06:29:04;;;;;;;22.00;9.55;;;;;;;-0.72;91.21;102852.06;4993570;28;20483;-86
2023/01/29 06:31:29;;;;;;;22.58;9.70;;;;;;;-0.71;91.22;102834.31;4995620;28;20038;-86
2023/01/29 06:33:54;;;;;;;25.00;11.93;;;;;;;-0.67;91.15;102823.53;4994886;28;20022;-86
2023/01/29 06:36:19;;;;;;;26.23;12.90;;;;;;;-0.64;90.77;102812.63;4995543;28;20391;-87
2023/01/29 06:38:46;;;;;;;29.45;14.48;;;;;;;-0.63;90.34;102809.28;4993241;28;20105;-86
2023/01/29 06:41:15;;;;;;;31.77;16.20;;;;;;;-0.57;90.47;102806.22;4984483;28;20046;-87
2023/01/29 06:43:43;;;;;;;30.77;16.10;;;;;;;-0.60;90.88;102817.13;4983858;28;20514;-86
2023/01/29 06:46:09;;;;;;;27.98;14.38;;;;;;;-0.62;90.83;102823.81;4986002;28;20475;-86
2023/01/29 06:48:52;;;;;;;28.15;14.30;;;;;;;-0.64;90.87;102823.72;4983023;28;20114;-84
2023/01/29 06:51:17;;;;;;;27.58;13.18;;;;;;;-0.60;90.94;102818.78;4994979;28;20073;-85
2023/01/29 06:53:43;;;;;;;27.75;14.15;;;;;;;-0.65;91.18;102806.66;4984400;28;20019;-85
2023/01/29 06:56:08;;;;;;;27.63;13.48;;;;;;;-0.61;91.24;102805.16;4975577;28;20030;-85
2023/01/29 06:58:52;;;;;;;27.90;14.25;;;;;;;-0.58;91.07;102801.91;4976604;28;20526;-87
2023/01/29 07:01:17;;;;;;;28.13;13.65;;;;;;;-0.62;91.50;102809.38;4974736;28;20042;-86
2023/01/29 07:03:43;;;;;;;27.13;13.60;;;;;;;-0.63;91.27;102796.53;4975740;28;20022;-86
2023/01/29 07:06:09;;;;;;;28.35;14.10;;;;;;;-0.60;90.98;102801.84;4987632;28;20026;-86
2023/01/29 07:08:54;;;;;;;28.67;14.20;;;;;;;-0.60;91.35;102801.84;4994653;28;20526;-86
2023/01/29 07:11:19;;;;;;;30.67;15.82;;;;;;;-0.57;91.21;102802.03;4995046;28;20536;-85
2023/01/29 07:13:44;;;;;;;30.65;14.93;;;;;;;-0.57;91.24;102807.13;4993005;28;20057;-85
2023/01/29 07:16:17;;;;;;;26.52;13.18;;;;;;;-0.55;91.45;102814.88;4983794;28;20113;-85
2023/01/29 07:18:46;;;;;;;25.83;12.32;;;;;;;-0.55;91.12;102815.75;5001551;28;20041;-84
2023/01/29 07:21:27;;;;;;;23.23;11.15;;;;;;;-0.55;91.77;102814.88;5013920;28;20088;-85
2023/01/29 07:23:55;;;;;;;22.88;10.05;;;;;;;-0.54;91.98;102812.41;5014210;28;20037;-80
2023/01/29 07:26:20;;;;;;;22.42;10.15;;;;;;;-0.51;91.59;102821.94;5014042;28;20527;-84
2023/01/29 07:28:46;;;;;;;21.52;9.25;;;;;;;-0.51;91.58;102815.16;4998862;28;20062;-85
2023/01/29 07:31:13;;;;;;;21.90;9.90;;;;;;;-0.51;91.31;102816.84;5014511;28;20108;-85
2023/01/29 07:33:39;;;;;;;;;;;;;;;-0.48;91.63;102825.56;5014605;28;20506;-85
2023/01/29 07:36:24;;;;;;;23.03;9.90;;;;;;;-0.49;91.41;102805.03;5011954;28;20060;-84
2023/01/29 07:38:50;;;;;;;23.83;10.95;;;;;;;-0.46;90.94;102800.13;5007348;28;20037;-85
2023/01/29 07:41:18;;;;;;;24.00;11.03;;;;;;;-0.43;90.98;102804.53;5009333;28;20481;-85
2023/01/29 07:43:49;;;;;;;23.13;10.88;;;;;;;-0.43;91.34;102796.88;5009436;28;20153;-85
2023/01/29 07:46:21;;;;;;;22.92;10.20;;;;;;;-0.44;91.75;102806.22;4994327;28;20057;-87
2023/01/29 07:48:46;;;;;;;22.33;9.25;;;;;;;-0.44;91.62;102810.41;4993916;28;20038;-85
2023/01/29 07:51:17;;;;;;;21.92;9.48;;;;;;;-0.47;91.69;102806.03;4993425;28;20026;-85
2023/01/29 07:53:52;;;;;;;20.58;8.45;;;;;;;-0.43;91.57;102812.19;4996644;28;20018;-85
2023/01/29 07:56:26;;;;;;;21.90;9.55;;;;;;;-0.39;91.38;102816.69;5001892;28;20072;-88
2023/01/29 07:58:51;;;;;;;22.98;10.10;;;;;;;-0.37;91.37;102807.47;4994094;28;20030;-87
2023/01/29 08:01:17;;;;;;;25.48;12.15;;;;;;;-0.37;91.17;102797.28;5013649;28;20040;-84
2023/01/29 08:03:48;;;;;;;24.80;11.50;;;;;;;-0.38;91.24;102796.38;5012380;28;20473;-85
2023/01/29 08:06:28;;;;;;;24.13;11.32;;;;;;;-0.35;91.01;102799.13;5013680;28;20022;-86
2023/01/29 08:09:12;;;;;;;24.77;11.85;;;;;;;-0.33;91.38;102800.09;5013194;28;20060;-85
2023/01/29 08:11:44;;;;;;;25.23;11.88;;;;;;;-0.33;90.89;102799.19;5008254;28;20479;-86
2023/01/29 08:14:27;;;;;;;24.23;10.63;;;;;;;-0.33;91.56;102794.09;4995848;28;20050;-84
2023/01/29 08:16:53;;;;;;;22.58;10.45;;;;;;;-0.34;91.38;102795.78;5003381;28;20048;-84
2023/01/29 08:19:21;;;;;;;21.52;9.20;;;;;;;-0.32;91.71;102806.06;5013778;28;20042;-85
2023/01/29 08:22:03;;;;;;;21.88;9.77;;;;;;;-0.30;91.49;102795.97;5012845;28;20022;-86
2023/01/29 08:24:46;;;;;;;23.50;10.80;;;;;;;-0.26;91.37;102790.25;5013617;28;20029;-86
2023/01/29 08:27:11;;;;;;;24.48;11.52;;;;;;;-0.29;91.50;102783.31;5014075;28;20030;-87
2023/01/29 08:29:37;;;;;;;22.98;10.23;;;;;;;-0.26;91.47;102780.03;5013676;28;20541;-87
2023/01/29 08:32:02;;;;;;;23.17;10.45;;;;;;;-0.25;91.59;102784.38;5012810;28;20018;-88
2023/01/29 08:34:39;;;;;;;21.67;9.43;;;;;;;-0.26;91.20;102775.84;5012879;28;20030;-87
2023/01/29 08:37:10;;;;;;;22.63;10.77;;;;;;;-0.25;91.42;102772.50;5013273;28;20029;-87
2023/01/29 08:39:35;;;;;;;21.20;9.80;;;;;;;-0.21;91.32;102773.56;5012612;28;20022;-87
2023/01/29 08:42:00;;;;;;;23.50;11.05;;;;;;;-0.20;91.44;102763.44;5000258;28;20455;-86
2023/01/29 08:44:26;;;;;;;23.13;10.73;;;;;;;-0.21;91.37;102761.66;4990083;28;20511;-86
2023/01/29 08:46:51;;;;;;;25.23;11.32;;;;;;;-0.14;90.86;102754.41;4972778;28;20122;-86
2023/01/29 08:49:16;;;;;;;25.15;11.85;;;;;;;-0.16;91.48;102750.09;4974188;28;20114;-86
2023/01/29 08:51:41;;;;;;;28.55;14.88;;;;;;;-0.08;90.68;102750.53;4974234;28;20062;-86
2023/01/29 08:54:07;;;;;;;29.65;15.85;;;;;;;-0.08;90.64;102753.09;4987660;28;20069;-86
2023/01/29 08:56:32;;;;;;;28.55;14.70;;;;;;;-0.06;90.67;102753.16;4996377;28;20105;-87
2023/01/29 08:58:58;;;;;;;27.67;13.95;;;;;;;-0.04;90.76;102765.22;5012799;28;20026;-86
2023/01/29 09:01:23;;;;;;;27.98;14.38;;;;;;;-0.04;90.46;102755.03;5007347;28;20057;-87
2023/01/29 09:04:07;;;;;;;28.27;14.82;;;;;;;0.00;90.62;102751.00;4993942;28;20026;-88
2023/01/29 09:06:32;;;;;;;27.63;14.25;;;;;;;0.03;90.59;102760.50;4994533;28;20045;-88
2023/01/29 09:08:58;;;;;;;27.35;13.75;;;;;;;0.03;90.75;102766.47;4993143;28;20387;-86
2023/01/29 09:11:39;;;;;;;25.27;12.52;;;;;;;0.03;91.02;102758.81;4993149;28;20038;-87
2023/01/29 09:14:04;;;;;;;25.13;12.15;;;;;;;0.07;90.82;102755.66;4995732;28;20530;-86
2023/01/29 09:16:30;;;;;;;24.58;11.82;;;;;;;0.07;91.13;102748.00;5009495;28;20030;-86
2023/01/29 09:18:55;;;;;;;23.27;11.00;;;;;;;0.12;91.07;102753.38;4996787;28;20053;-86
2023/01/29 09:21:38;;;;;;;22.55;10.23;;;;;;;0.15;90.41;102745.91;4995171;28;20030;-86
2023/01/29 09:24:04;;;;;;;24.27;11.82;;;;;;;0.18;90.50;102745.19;5008848;23;20080;-86
2023/01/29 09:26:30;;;;;;;23.55;11.10;;;;;;;0.18;90.83;102735.84;5010884;28;20026;-87
2023/01/29 09:28:56;;;;;;;21.77;10.10;;;;;;;0.20;91.10;102741.94;4997878;28;20196;-86
2023/01/29 09:31:21;;;;;;;21.00;9.00;;;;;;;0.23;91.01;102739.56;4998128;28;20610;-83
2023/01/29 09:33:49;;;;;;;20.95;9.10;;;;;;;0.27;90.82;102740.63;4996144;28;20034;-84
2023/01/29 09:36:15;;;;;;;23.70;11.23;;;;;;;0.28;90.83;102740.69;4995803;28;20068;-85
2023/01/29 09:38:40;;;;;;;24.60;11.68;;;;;;;0.35;90.42;102741.94;4995469;28;20109;-85
2023/01/29 09:41:42;;;;;;;23.48;11.10;;;;;;;0.35;90.32;102752.16;4996107;28;20031;-84
2023/01/29 09:44:18;;;;;;;25.15;12.50;;;;;;;0.39;90.13;102751.53;5003998;28;20022;-85
2023/01/29 09:46:47;;;;;;;24.27;12.32;;;;;;;0.44;89.99;102746.69;4998028;28;20085;-84
2023/01/29 09:49:30;;;;;;;27.55;14.10;;;;;;;0.49;89.85;102750.41;5008712;28;20040;-85
2023/01/29 09:52:01;;;;;;;27.10;14.30;;;;;;;0.48;89.58;102748.63;5005099;28;20029;-84
2023/01/29 09:54:35;;;;;;;26.40;13.75;;;;;;;0.47;90.35;102749.44;5020740;28;20037;-82
2023/01/29 09:57:00;;;;;;;25.60;12.90;;;;;;;0.49;89.94;102740.19;5012457;28;20029;-84
2023/01/29 09:59:28;;;;;;;25.33;12.75;;;;;;;0.53;90.06;102749.75;5014374;28;20394;-84
2023/01/29 10:02:05;;;;;;;27.90;14.93;;;;;;;0.61;89.03;102743.44;5006558;28;20080;-83
2023/01/29 10:04:48;;;;;;;27.33;14.13;;;;;;;0.57;89.93;102743.16;4994737;28;20023;-84
2023/01/29 10:07:28;;;;;;;27.55;13.50;;;;;;;0.60;89.87;102748.44;4995675;28;20034;-84
2023/01/29 10:10:06;;;;;;;23.10;11.15;;;;;;;0.62;90.06;102744.31;4996008;28;20022;-84
2023/01/29 10:12:37;;;;;;;23.42;10.88;;;;;;;0.66;89.82;102753.91;4996011;28;20026;-84
2023/01/29 10:15:27;;;;;;;21.63;10.50;;;;;;;0.70;89.89;102750.72;4996156;28;20391;-85
2023/01/29 10:18:01;;;;;;;22.10;10.18;;;;;;;0.73;89.38;102743.22;4995246;28;20038;-84
2023/01/29 10:20:35;;;;;;;24.38;11.75;;;;;;;0.76;89.20;102751.06;4995998;28;20026;-84
2023/01/29 10:23:17;;;;;;;24.88;12.90;;;;;;;0.79;89.65;102750.34;4996076;28;20045;-84
2023/01/29 10:25:44;;;;;;;24.70;12.80;;;;;;;0.83;89.49;102748.84;4995014;28;20046;-84
2023/01/29 10:28:33;;;;;;;25.77;13.57;;;;;;;0.83;88.74;102752.31;4994710;28;20022;-84
2023/01/29 10:31:07;;;;;;;24.42;12.75;;;;;;;0.85;89.15;102743.03;4995969;28;20029;-83
2023/01/29 10:33:39;;;;;;;23.13;11.65;;;;;;;0.87;89.16;102746.53;4996391;28;20487;-84
2023/01/29 10:36:10;;;;;;;23.92;11.98;;;;;;;0.88;89.18;102743.19;4995202;28;20070;-84
2023/01/29 10:38:43;;;;;;;22.98;11.32;;;;;;;0.93;89.22;102743.44;4995334;28;20018;-84
2023/01/29 10:41:09;;;;;;;24.13;11.95;;;;;;;0.99;88.59;102743.81;5009384;28;20069;-85
2023/01/29 10:44:02;;;;;;;22.50;11.30;;;;;;;0.99;89.05;102737.78;4998742;28;20463;-85
2023/01/29 10:46:39;;;;;;;24.40;11.85;;;;;;;1.01;88.52;102737.09;4995117;28;20077;-84
2023/01/29 10:49:42;;;;;;;23.25;11.77;;;;;;;1.05;88.97;102736.44;4995570;28;20038;-84
2023/01/29 10:52:30;;;;;;;22.38;10.80;;;;;;;1.10;88.44;102736.69;4995083;28;20038;-84
2023/01/29 10:55:14;;;;;;;22.85;11.20;;;;;;;1.13;88.43;102725.75;4995123;28;20038;-84
2023/01/29 10:57:57;;;;;;;22.20;10.68;;;;;;;1.17;88.69;102732.78;4995535;28;20018;-84
2023/01/29 11:00:26;;;;;;;23.17;11.55;;;;;;;1.22;88.22;102727.13;4994667;28;20513;-84
2023/01/29 11:02:52;;;;;;;23.20;11.60;;;;;;;1.27;88.37;102722.25;4994463;28;20486;-84
2023/01/29 11:05:23;;;;;;;22.58;11.18;;;;;;;1.30;87.91;102701.97;4994342;28;20072;-84
2023/01/29 11:08:01;;;;;;;24.77;13.15;;;;;;;1.39;87.15;102705.00;4994410;28;20027;-85
2023/01/29 11:10:29;;;;;;;25.50;12.63;;;;;;;1.37;87.35;102695.50;4995061;28;20038;-85
2023/01/29 11:12:55;;;;;;;22.98;11.57;;;;;;;1.43;87.14;102692.38;4994556;28;20062;-85
2023/01/29 11:15:30;;;;;;;22.40;11.50;;;;;;;1.49;87.37;102685.00;4994210;28;20045;-85
2023/01/29 11:18:01;;;;;;;23.00;11.25;;;;;;;1.52;87.39;102670.69;4994668;28;20026;-84
2023/01/29 11:20:28;;;;;;;20.20;10.00;;;;;;;1.59;87.70;102669.31;4998617;28;20145;-84
2023/01/29 11:22:54;;;;;;;20.40;9.25;;;;;;;1.68;87.51;102663.81;5012830;28;20032;-84
2023/01/29 11:25:23;;;;;;;21.83;10.70;;;;;;;1.72;86.56;102655.50;5013988;28;20053;-84
2023/01/29 11:27:55;;;;;;;21.48;10.45;;;;;;;1.77;87.02;102658.28;5013644;28;20296;-84
2023/01/29 11:30:36;;;;;;;20.10;9.45;;;;;;;1.82;87.36;102655.16;5014317;28;20065;-84
2023/01/29 11:33:18;;;;;;;24.38;11.80;;;;;;;1.87;85.62;102642.56;5013434;28;20036;-84
2023/01/29 11:35:44;;;;;;;22.30;11.13;;;;;;;1.88;86.08;102638.31;5013259;28;20161;-84
2023/01/29 11:38:15;;;;;;;22.60;11.45;;;;;;;1.92;85.67;102630.00;5009229;28;20109;-85
2023/01/29 11:40:41;;;;;;;22.67;11.15;;;;;;;1.95;85.59;102631.00;4996705;28;20050;-84
2023/01/29 11:43:17;;;;;;;22.45;11.05;;;;;;;1.99;85.41;102634.59;5010911;28;20022;-85
2023/01/29 11:45:43;;;;;;;24.42;12.02;;;;;;;2.00;85.84;102616.75;4998773;28;20029;-86
2023/01/29 11:48:21;;;;;;;22.95;12.23;;;;;;;2.06;85.88;102612.72;5013419;28;20025;-84
2023/01/29 11:50:59;;;;;;;22.42;11.13;;;;;;;2.10;85.52;102612.09;5002786;28;20034;-84
2023/01/29 11:53:44;;;;;;;22.98;11.80;;;;;;;2.14;85.16;102603.72;5001611;28;20115;-83
2023/01/29 11:56:24;;;;;;;23.70;11.57;;;;;;;2.16;85.01;102600.44;4995879;28;20072;-85
2023/01/29 11:58:52;;;;;;;25.38;13.88;;;;;;;2.20;83.80;102592.88;5003064;28;20052;-84
2023/01/29 12:01:37;;;;;;;24.75;13.15;;;;;;;2.18;84.60;102581.72;4993543;28;20081;-83
2023/01/29 12:04:14;;;;;;;22.83;12.10;;;;;;;2.23;84.38;102570.88;5007696;23;20050;-84
2023/01/29 12:06:43;;;;;;;23.88;12.45;;;;;;;2.21;84.75;102571.59;5013009;28;20061;-84
2023/01/29 12:09:14;;;;;;;24.17;12.50;;;;;;;2.28;84.79;102566.84;5013298;28;20025;-84
2023/01/29 12:11:39;;;;;;;23.02;11.77;;;;;;;2.29;84.88;102560.91;5013162;28;20021;-85
2023/01/29 12:14:25;;;;;;;24.40;13.13;;;;;;;2.31;84.50;102554.16;5012669;28;20088;-84
2023/01/29 12:17:14;;;;;;;24.55;12.70;;;;;;;2.32;83.36;102555.03;5012420;28;20062;-85
2023/01/29 12:19:47;;;;;;;23.88;12.77;;;;;;;2.33;83.27;102550.81;5013250;28;20021;-84